sensor_id;sensor_type;location;lat;lon;timestamp;pressure;altitude;pressure_sealevel;temperature;humidity
46583;BME280;32309;48.858;8.252;2023-05-16T01:27:00;100046.50;;;14.45;85.12
46583;BME280;32309;48.858;8.252;2023-05-16T01:40:52;100040.81;;;14.52;82.80
46583;BME280;32309;48.858;8.252;2023-05-16T01:46:44;100042.00;;;14.47;84.64
46583;BME280;32309;48.858;8.252;2023-05-16T01:49:33;100048.88;;;14.48;84.21
46583;BME280;32309;48.858;8.252;2023-05-16T01:58:04;100060.72;;;14.41;85.01
46583;BME280;32309;48.858;8.252;2023-05-16T02:06:33;100057.75;;;14.46;86.39
46583;BME280;32309;48.858;8.252;2023-05-16T02:09:12;100064.75;;;14.45;86.54
46583;BME280;32309;48.858;8.252;2023-05-16T03:38:10;100084.81;;;13.14;83.96
46583;BME280;32309;48.858;8.252;2023-05-16T03:40:11;100083.66;;;13.18;81.13
46583;BME280;32309;48.858;8.252;2023-05-16T03:42:11;100091.47;;;13.18;82.36
46583;BME280;32309;48.858;8.252;2023-05-16T03:44:11;100093.34;;;13.16;81.99
46583;BME280;32309;48.858;8.252;2023-05-16T03:46:12;100094.78;;;13.20;82.60
46583;BME280;32309;48.858;8.252;2023-05-16T03:48:12;100090.22;;;13.24;83.88
46583;BME280;32309;48.858;8.252;2023-05-16T03:50:12;100098.72;;;13.26;82.13
46583;BME280;32309;48.858;8.252;2023-05-16T04:55:01;100132.66;;;12.74;80.25
46583;BME280;32309;48.858;8.252;2023-05-16T04:57:01;100135.38;;;12.73;81.01
46583;BME280;32309;48.858;8.252;2023-05-16T04:59:19;100137.84;;;12.74;80.81
46583;BME280;32309;48.858;8.252;2023-05-16T05:01:22;100135.47;;;12.71;80.56
46583;BME280;32309;48.858;8.252;2023-05-16T05:03:22;100142.44;;;12.71;80.72
46583;BME280;32309;48.858;8.252;2023-05-16T05:05:26;100135.47;;;12.71;79.91
46583;BME280;32309;48.858;8.252;2023-05-16T05:07:45;100142.97;;;12.63;79.78
46583;BME280;32309;48.858;8.252;2023-05-16T05:10:00;100151.19;;;12.57;80.07
46583;BME280;32309;48.858;8.252;2023-05-16T05:12:03;100148.19;;;12.50;79.99
46583;BME280;32309;48.858;8.252;2023-05-16T05:14:15;100152.44;;;12.51;80.16
46583;BME280;32309;48.858;8.252;2023-05-16T05:18:59;100160.53;;;12.34;81.58
46583;BME280;32309;48.858;8.252;2023-05-16T05:21:09;100155.66;;;12.42;81.09
46583;BME280;32309;48.858;8.252;2023-05-16T05:23:09;100160.44;;;12.48;80.77
46583;BME280;32309;48.858;8.252;2023-05-16T05:25:22;100166.56;;;12.47;80.15
46583;BME280;32309;48.858;8.252;2023-05-16T05:30:06;100169.16;;;12.34;80.49
46583;BME280;32309;48.858;8.252;2023-05-16T05:35:48;100171.75;;;12.21;80.41
46583;BME280;32309;48.858;8.252;2023-05-16T05:38:06;100174.97;;;12.25;80.37
46583;BME280;32309;48.858;8.252;2023-05-16T05:40:46;100176.00;;;12.22;80.22
46583;BME280;32309;48.858;8.252;2023-05-16T05:42:53;100173.53;;;12.21;80.12
46583;BME280;32309;48.858;8.252;2023-05-16T05:51:34;100175.97;;;12.09;81.34
46583;BME280;32309;48.858;8.252;2023-05-16T05:53:34;100180.13;;;12.12;81.39
46583;BME280;32309;48.858;8.252;2023-05-16T05:55:45;100182.22;;;12.07;81.27
46583;BME280;32309;48.858;8.252;2023-05-16T05:57:48;100185.00;;;12.04;81.51
46583;BME280;32309;48.858;8.252;2023-05-16T05:59:48;100184.81;;;12.07;81.64
46583;BME280;32309;48.858;8.252;2023-05-16T06:01:49;100176.09;;;12.08;81.26
46583;BME280;32309;48.858;8.252;2023-05-16T06:03:53;100188.44;;;12.04;81.16
46583;BME280;32309;48.858;8.252;2023-05-16T06:27:52;100210.47;;;11.84;82.27
46583;BME280;32309;48.858;8.252;2023-05-16T06:29:53;100202.56;;;11.86;81.77
46583;BME280;32309;48.858;8.252;2023-05-16T06:31:56;100206.84;;;11.87;81.62
46583;BME280;32309;48.858;8.252;2023-05-16T06:33:59;100211.28;;;11.85;81.97
46583;BME280;32309;48.858;8.252;2023-05-16T06:36:13;100208.69;;;11.85;81.82
46583;BME280;32309;48.858;8.252;2023-05-16T06:38:13;100218.06;;;11.87;81.55
46583;BME280;32309;48.858;8.252;2023-05-16T06:40:18;100216.69;;;11.81;81.65
46583;BME280;32309;48.858;8.252;2023-05-16T06:42:18;100220.31;;;11.79;81.93
46583;BME280;32309;48.858;8.252;2023-05-16T06:44:19;100215.00;;;11.80;82.66
46583;BME280;32309;48.858;8.252;2023-05-16T06:46:19;100212.84;;;11.87;81.64
46583;BME280;32309;48.858;8.252;2023-05-16T06:48:20;100219.63;;;11.90;81.21
46583;BME280;32309;48.858;8.252;2023-05-16T06:50:21;100220.66;;;11.87;81.63
46583;BME280;32309;48.858;8.252;2023-05-16T06:52:21;100225.63;;;11.90;80.80
46583;BME280;32309;48.858;8.252;2023-05-16T06:54:22;100224.00;;;11.89;80.90
46583;BME280;32309;48.858;8.252;2023-05-16T06:56:24;100227.72;;;11.85;81.62
46583;BME280;32309;48.858;8.252;2023-05-16T06:58:43;100222.59;;;11.83;81.60
46583;BME280;32309;48.858;8.252;2023-05-16T07:00:44;100230.50;;;11.82;81.60
46583;BME280;32309;48.858;8.252;2023-05-16T07:18:20;100240.06;;;11.96;80.16
46583;BME280;32309;48.858;8.252;2023-05-16T07:30:02;100240.78;;;11.83;80.67
46583;BME280;32309;48.858;8.252;2023-05-16T09:27:41;100302.38;;;12.23;73.42
46583;BME280;32309;48.858;8.252;2023-05-16T09:29:45;100301.66;;;12.21;73.88
46583;BME280;32309;48.858;8.252;2023-05-16T09:31:49;100297.94;;;12.25;73.57
46583;BME280;32309;48.858;8.252;2023-05-16T09:33:49;100300.63;;;12.24;73.95
46583;BME280;32309;48.858;8.252;2023-05-16T09:35:56;100302.09;;;12.28;73.95
46583;BME280;32309;48.858;8.252;2023-05-16T09:38:00;100305.56;;;12.41;73.21
46583;BME280;32309;48.858;8.252;2023-05-16T09:40:00;100306.81;;;12.36;73.31
46583;BME280;32309;48.858;8.252;2023-05-16T09:53:54;100322.94;;;12.13;73.42
46583;BME280;32309;48.858;8.252;2023-05-16T10:26:52;100327.97;;;11.88;73.64
46583;BME280;32309;48.858;8.252;2023-05-16T10:28:55;100328.59;;;11.91;73.48
46583;BME280;32309;48.858;8.252;2023-05-16T10:30:58;100330.28;;;11.92;74.04
46583;BME280;32309;48.858;8.252;2023-05-16T10:33:09;100333.44;;;11.97;73.78
46583;BME280;32309;48.858;8.252;2023-05-16T10:35:29;100334.25;;;12.12;73.29
46583;BME280;32309;48.858;8.252;2023-05-16T10:37:32;100329.59;;;12.18;73.58
46583;BME280;32309;48.858;8.252;2023-05-16T10:39:33;100320.56;;;12.23;73.50
46583;BME280;32309;48.858;8.252;2023-05-16T10:41:34;100329.75;;;12.29;73.26
46583;BME280;32309;48.858;8.252;2023-05-16T10:43:35;100335.00;;;12.42;72.18
46583;BME280;32309;48.858;8.252;2023-05-16T10:45:39;100334.38;;;12.38;72.73
46583;BME280;32309;48.858;8.252;2023-05-16T10:47:44;100330.31;;;12.34;72.63
46583;BME280;32309;48.858;8.252;2023-05-16T10:49:50;100337.34;;;12.32;72.68
46583;BME280;32309;48.858;8.252;2023-05-16T10:52:09;100342.34;;;12.35;72.34
46583;BME280;32309;48.858;8.252;2023-05-16T10:54:11;100335.72;;;12.44;71.17
46583;BME280;32309;48.858;8.252;2023-05-16T10:56:13;100335.84;;;12.42;70.75
46583;BME280;32309;48.858;8.252;2023-05-16T10:58:18;100333.81;;;12.33;71.15
46583;BME280;32309;48.858;8.252;2023-05-16T11:00:38;100340.06;;;12.30;71.53
46583;BME280;32309;48.858;8.252;2023-05-16T11:02:40;100340.16;;;12.29;71.47
46583;BME280;32309;48.858;8.252;2023-05-16T11:04:54;100333.28;;;12.28;71.38
46583;BME280;32309;48.858;8.252;2023-05-16T11:06:56;100341.72;;;12.31;70.26
46583;BME280;32309;48.858;8.252;2023-05-16T11:13:53;100352.22;;;12.30;70.67
46583;BME280;32309;48.858;8.252;2023-05-16T11:16:12;100348.44;;;12.21;71.08
46583;BME280;32309;48.858;8.252;2023-05-16T11:18:25;100354.56;;;12.20;71.09
46583;BME280;32309;48.858;8.252;2023-05-16T11:20:26;100354.94;;;12.14;71.23
46583;BME280;32309;48.858;8.252;2023-05-16T11:22:29;100355.56;;;12.18;71.14
46583;BME280;32309;48.858;8.252;2023-05-16T11:24:30;100366.06;;;12.16;70.66
46583;BME280;32309;48.858;8.252;2023-05-16T11:26:30;100375.09;;;12.10;70.99
46583;BME280;32309;48.858;8.252;2023-05-16T11:28:31;100377.16;;;12.05;71.24
46583;BME280;32309;48.858;8.252;2023-05-16T11:30:31;100369.91;;;12.10;70.67
46583;BME280;32309;48.858;8.252;2023-05-16T11:32:34;100382.50;;;12.02;70.96
46583;BME280;32309;48.858;8.252;2023-05-16T11:34:38;100371.66;;;11.95;72.01
46583;BME280;32309;48.858;8.252;2023-05-16T11:36:39;100380.31;;;11.96;72.49
46583;BME280;32309;48.858;8.252;2023-05-16T11:38:39;100369.44;;;12.04;70.12
46583;BME280;32309;48.858;8.252;2023-05-16T11:40:42;100379.44;;;12.10;70.33
46583;BME280;32309;48.858;8.252;2023-05-16T11:42:44;100383.81;;;12.09;70.14
46583;BME280;32309;48.858;8.252;2023-05-16T11:44:48;100379.25;;;12.13;68.83
46583;BME280;32309;48.858;8.252;2023-05-16T11:46:48;100381.69;;;12.02;69.71
46583;BME280;32309;48.858;8.252;2023-05-16T11:48:48;100384.47;;;11.98;70.87
46583;BME280;32309;48.858;8.252;2023-05-16T11:50:49;100376.22;;;12.06;69.82
46583;BME280;32309;48.858;8.252;2023-05-16T11:52:50;100377.41;;;12.01;70.24
46583;BME280;32309;48.858;8.252;2023-05-16T11:54:52;100377.31;;;12.02;70.88
46583;BME280;32309;48.858;8.252;2023-05-16T11:56:53;100378.72;;;12.08;70.58
46583;BME280;32309;48.858;8.252;2023-05-16T11:58:54;100375.19;;;12.09;70.20
46583;BME280;32309;48.858;8.252;2023-05-16T12:00:55;100384.25;;;12.16;69.52
46583;BME280;32309;48.858;8.252;2023-05-16T12:02:59;100381.19;;;12.24;68.73
46583;BME280;32309;48.858;8.252;2023-05-16T12:05:06;100377.34;;;12.29;68.08
46583;BME280;32309;48.858;8.252;2023-05-16T12:07:08;100387.22;;;12.24;68.67
46583;BME280;32309;48.858;8.252;2023-05-16T12:09:14;100385.47;;;12.25;69.16
46583;BME280;32309;48.858;8.252;2023-05-16T12:11:14;100391.38;;;12.27;69.11
46583;BME280;32309;48.858;8.252;2023-05-16T12:13:15;100395.66;;;12.28;68.71
46583;BME280;32309;48.858;8.252;2023-05-16T12:15:16;100390.81;;;12.36;68.65
46583;BME280;32309;48.858;8.252;2023-05-16T12:17:17;100393.88;;;12.28;69.49
46583;BME280;32309;48.858;8.252;2023-05-16T12:19:19;100401.28;;;12.35;69.07
46583;BME280;32309;48.858;8.252;2023-05-16T13:32:03;100463.78;;;12.04;69.27
46583;BME280;32309;48.858;8.252;2023-05-16T13:34:03;100468.44;;;12.13;67.81
46583;BME280;32309;48.858;8.252;2023-05-16T13:44:40;100467.41;;;12.30;65.44
46583;BME280;32309;48.858;8.252;2023-05-16T13:46:40;100464.59;;;12.34;64.45
46583;BME280;32309;48.858;8.252;2023-05-16T13:48:40;100466.28;;;12.35;63.44
46583;BME280;32309;48.858;8.252;2023-05-16T13:50:41;100460.41;;;12.31;62.56
46583;BME280;32309;48.858;8.252;2023-05-16T13:52:43;100460.13;;;12.50;62.24
46583;BME280;32309;48.858;8.252;2023-05-16T13:54:47;100472.56;;;12.59;61.23
46583;BME280;32309;48.858;8.252;2023-05-16T13:56:53;100465.56;;;12.60;60.89
46583;BME280;32309;48.858;8.252;2023-05-16T13:59:11;100467.34;;;12.59;61.74
46583;BME280;32309;48.858;8.252;2023-05-16T14:01:11;100466.44;;;12.60;60.45
46583;BME280;32309;48.858;8.252;2023-05-16T14:03:12;100462.16;;;12.59;60.65
46583;BME280;32309;48.858;8.252;2023-05-16T14:05:13;100482.31;;;12.56;61.02
46583;BME280;32309;48.858;8.252;2023-05-16T14:07:13;100475.16;;;12.59;58.54
46583;BME280;32309;48.858;8.252;2023-05-16T14:09:14;100474.28;;;12.59;58.24
46583;BME280;32309;48.858;8.252;2023-05-16T14:11:14;100470.63;;;12.48;59.20
46583;BME280;32309;48.858;8.252;2023-05-16T14:13:15;100470.53;;;12.50;58.38
46583;BME280;32309;48.858;8.252;2023-05-16T14:15:15;100472.00;;;12.54;58.47
46583;BME280;32309;48.858;8.252;2023-05-16T14:17:16;100480.00;;;12.51;59.35
46583;BME280;32309;48.858;8.252;2023-05-16T14:19:23;100479.59;;;12.57;59.27
46583;BME280;32309;48.858;8.252;2023-05-16T14:24:36;100471.91;;;12.56;59.99
46583;BME280;32309;48.858;8.252;2023-05-16T14:29:49;100463.72;;;12.62;57.08
46583;BME280;32309;48.858;8.252;2023-05-16T14:31:51;100471.69;;;12.59;57.76
46583;BME280;32309;48.858;8.252;2023-05-16T14:33:52;100467.63;;;12.55;57.22
46583;BME280;32309;48.858;8.252;2023-05-16T14:35:52;100469.50;;;12.53;57.05
46583;BME280;32309;48.858;8.252;2023-05-16T14:37:52;100475.53;;;12.53;57.15
46583;BME280;32309;48.858;8.252;2023-05-16T14:39:52;100465.03;;;12.55;56.78
46583;BME280;32309;48.858;8.252;2023-05-16T14:41:54;100471.56;;;12.47;57.39
46583;BME280;32309;48.858;8.252;2023-05-16T14:43:54;100467.94;;;12.50;56.60
46583;BME280;32309;48.858;8.252;2023-05-16T14:45:56;100477.84;;;12.58;56.22
46583;BME280;32309;48.858;8.252;2023-05-16T14:47:56;100484.19;;;12.54;55.39
46583;BME280;32309;48.858;8.252;2023-05-16T14:49:57;100473.56;;;12.57;55.58
46583;BME280;32309;48.858;8.252;2023-05-16T14:51:57;100475.53;;;12.53;56.46
46583;BME280;32309;48.858;8.252;2023-05-16T14:53:57;100472.56;;;12.59;56.15
46583;BME280;32309;48.858;8.252;2023-05-16T14:55:58;100470.88;;;12.58;56.03
46583;BME280;32309;48.858;8.252;2023-05-16T14:57:58;100472.66;;;12.58;55.04
46583;BME280;32309;48.858;8.252;2023-05-16T14:59:58;100479.50;;;12.59;55.33
46583;BME280;32309;48.858;8.252;2023-05-16T15:01:59;100473.69;;;12.55;55.49
46583;BME280;32309;48.858;8.252;2023-05-16T15:03:59;100478.78;;;12.57;55.69
46583;BME280;32309;48.858;8.252;2023-05-16T15:05:59;100466.44;;;12.60;55.34
46583;BME280;32309;48.858;8.252;2023-05-16T15:08:00;100474.66;;;12.67;54.04
46583;BME280;32309;48.858;8.252;2023-05-16T15:10:07;100468.44;;;12.70;54.71
46583;BME280;32309;48.858;8.252;2023-05-16T15:12:13;100458.94;;;12.83;53.30
46583;BME280;32309;48.858;8.252;2023-05-16T15:14:52;100457.03;;;12.85;53.04
46583;BME280;32309;48.858;8.252;2023-05-16T15:16:52;100461.44;;;12.85;53.26
46583;BME280;32309;48.858;8.252;2023-05-16T15:18:55;100463.00;;;12.87;53.87
46583;BME280;32309;48.858;8.252;2023-05-16T15:20:56;100449.28;;;12.98;52.58
46583;BME280;32309;48.858;8.252;2023-05-16T15:22:59;100455.25;;;13.00;52.33
46583;BME280;32309;48.858;8.252;2023-05-16T15:24:59;100455.53;;;12.95;53.59
46583;BME280;32309;48.858;8.252;2023-05-16T15:27:00;100450.22;;;12.97;53.69
46583;BME280;32309;48.858;8.252;2023-05-16T15:29:26;100453.25;;;13.04;54.07
46583;BME280;32309;48.858;8.252;2023-05-16T15:31:26;100459.09;;;13.07;54.28
46583;BME280;32309;48.858;8.252;2023-05-16T15:33:27;100448.31;;;13.13;54.32
46583;BME280;32309;48.858;8.252;2023-05-16T15:35:27;100447.06;;;13.19;53.93
46583;BME280;32309;48.858;8.252;2023-05-16T15:37:30;100448.50;;;13.23;54.15
46583;BME280;32309;48.858;8.252;2023-05-16T15:39:30;100447.31;;;13.29;54.17
46583;BME280;32309;48.858;8.252;2023-05-16T15:41:33;100445.88;;;13.38;53.77
46583;BME280;32309;48.858;8.252;2023-05-16T15:43:33;100441.19;;;13.43;52.37
46583;BME280;32309;48.858;8.252;2023-05-16T15:45:36;100440.91;;;13.47;52.01
46583;BME280;32309;48.858;8.252;2023-05-16T15:47:37;100442.66;;;13.47;52.77
46583;BME280;32309;48.858;8.252;2023-05-16T15:49:37;100444.09;;;13.51;53.25
46583;BME280;32309;48.858;8.252;2023-05-16T15:51:38;100445.38;;;13.58;53.25
46583;BME280;32309;48.858;8.252;2023-05-16T15:53:38;100437.88;;;13.67;52.15
46583;BME280;32309;48.858;8.252;2023-05-16T15:55:38;100436.19;;;13.65;52.52
46583;BME280;32309;48.858;8.252;2023-05-16T15:57:39;100439.84;;;13.63;52.94
46583;BME280;32309;48.858;8.252;2023-05-16T15:59:39;100442.16;;;13.68;52.22
46583;BME280;32309;48.858;8.252;2023-05-16T16:01:39;100436.72;;;13.71;52.04
46583;BME280;32309;48.858;8.252;2023-05-16T16:03:39;100443.59;;;13.72;52.68
46583;BME280;32309;48.858;8.252;2023-05-16T16:05:40;100440.78;;;13.75;52.94
46583;BME280;32309;48.858;8.252;2023-05-16T16:07:40;100436.84;;;13.82;52.43
46583;BME280;32309;48.858;8.252;2023-05-16T16:09:40;100438.41;;;13.85;52.49
46583;BME280;32309;48.858;8.252;2023-05-16T16:11:41;100432.16;;;13.87;51.93
46583;BME280;32309;48.858;8.252;2023-05-16T16:13:41;100441.72;;;13.87;52.61
46583;BME280;32309;48.858;8.252;2023-05-16T16:15:41;100430.47;;;13.86;53.32
46583;BME280;32309;48.858;8.252;2023-05-16T16:17:42;100431.81;;;13.92;53.13
46583;BME280;32309;48.858;8.252;2023-05-16T16:19:42;100431.41;;;13.98;52.99
46583;BME280;32309;48.858;8.252;2023-05-16T16:21:42;100432.84;;;14.02;53.79
46583;BME280;32309;48.858;8.252;2023-05-16T16:23:43;100428.25;;;14.06;53.41
46583;BME280;32309;48.858;8.252;2023-05-16T16:25:43;100427.00;;;14.11;51.67
46583;BME280;32309;48.858;8.252;2023-05-16T16:27:43;100429.81;;;14.08;51.97
46583;BME280;32309;48.858;8.252;2023-05-16T16:29:44;100428.16;;;14.07;52.28
46583;BME280;32309;48.858;8.252;2023-05-16T16:31:44;100429.09;;;14.06;52.35
46583;BME280;32309;48.858;8.252;2023-05-16T16:33:44;100437.94;;;14.04;52.66
46583;BME280;32309;48.858;8.252;2023-05-16T16:35:47;100442.34;;;14.03;52.93
46583;BME280;32309;48.858;8.252;2023-05-16T16:37:48;100437.03;;;14.05;53.46
46583;BME280;32309;48.858;8.252;2023-05-16T16:39:48;100434.00;;;14.11;53.43
46583;BME280;32309;48.858;8.252;2023-05-16T16:41:48;100434.50;;;14.16;53.76
46583;BME280;32309;48.858;8.252;2023-05-16T16:43:49;100427.41;;;14.18;53.30
46583;BME280;32309;48.858;8.252;2023-05-16T16:45:49;100438.75;;;14.17;53.34
46583;BME280;32309;48.858;8.252;2023-05-16T16:47:50;100431.44;;;14.22;53.42
46583;BME280;32309;48.858;8.252;2023-05-16T16:49:51;100438.50;;;14.33;54.04
46583;BME280;32309;48.858;8.252;2023-05-16T16:51:51;100437.97;;;14.41;53.75
46583;BME280;32309;48.858;8.252;2023-05-16T16:53:51;100437.84;;;14.42;53.46
46583;BME280;32309;48.858;8.252;2023-05-16T16:55:52;100433.38;;;14.44;53.66
46583;BME280;32309;48.858;8.252;2023-05-16T16:57:52;100437.31;;;14.50;52.81
46583;BME280;32309;48.858;8.252;2023-05-16T16:59:53;100441.59;;;14.51;53.35
46583;BME280;32309;48.858;8.252;2023-05-16T17:01:53;100438.38;;;14.47;53.43
46583;BME280;32309;48.858;8.252;2023-05-16T17:03:53;100435.25;;;14.42;53.93
46583;BME280;32309;48.858;8.252;2023-05-16T17:05:55;100437.84;;;14.42;53.98
46583;BME280;32309;48.858;8.252;2023-05-16T17:07:55;100442.25;;;14.42;53.40
46583;BME280;32309;48.858;8.252;2023-05-16T17:09:57;100444.22;;;14.38;53.46
46583;BME280;32309;48.858;8.252;2023-05-16T17:11:58;100441.63;;;14.38;53.38
46583;BME280;32309;48.858;8.252;2023-05-16T17:14:05;100444.75;;;14.43;53.80
46583;BME280;32309;48.858;8.252;2023-05-16T17:16:06;100441.09;;;14.46;52.30
46583;BME280;32309;48.858;8.252;2023-05-16T17:18:07;100441.19;;;14.44;52.92
46583;BME280;32309;48.858;8.252;2023-05-16T17:20:07;100449.84;;;14.45;53.24
46583;BME280;32309;48.858;8.252;2023-05-16T17:22:09;100447.81;;;14.61;49.50
46583;BME280;32309;48.858;8.252;2023-05-16T17:24:09;100452.53;;;14.56;48.34
46583;BME280;32309;48.858;8.252;2023-05-16T17:26:10;100448.75;;;14.60;47.17
46583;BME280;32309;48.858;8.252;2023-05-16T17:28:12;100453.03;;;14.61;45.47
46583;BME280;32309;48.858;8.252;2023-05-16T17:30:12;100452.63;;;14.68;43.43
46583;BME280;32309;48.858;8.252;2023-05-16T17:32:13;100465.34;;;14.59;43.88
46583;BME280;32309;48.858;8.252;2023-05-16T17:34:13;100457.75;;;14.56;44.03
46583;BME280;32309;48.858;8.252;2023-05-16T17:36:14;100456.53;;;14.49;44.45
46583;BME280;32309;48.858;8.252;2023-05-16T17:38:14;100465.28;;;14.48;44.77
46583;BME280;32309;48.858;8.252;2023-05-16T17:40:32;100458.00;;;14.40;44.85
46583;BME280;32309;48.858;8.252;2023-05-16T17:42:33;100468.66;;;14.37;44.94
46583;BME280;32309;48.858;8.252;2023-05-16T17:44:34;100458.53;;;14.32;44.88
46583;BME280;32309;48.858;8.252;2023-05-16T17:46:35;100470.84;;;14.30;44.17
46583;BME280;32309;48.858;8.252;2023-05-16T17:48:38;100462.19;;;14.30;44.22
46583;BME280;32309;48.858;8.252;2023-05-16T17:50:39;100472.84;;;14.27;44.21
46583;BME280;32309;48.858;8.252;2023-05-16T17:52:39;100473.03;;;14.24;45.46
46583;BME280;32309;48.858;8.252;2023-05-16T17:54:39;100468.47;;;14.27;43.15
46583;BME280;32309;48.858;8.252;2023-05-16T17:56:40;100466.47;;;14.31;43.17
46583;BME280;32309;48.858;8.252;2023-05-16T17:58:46;100477.22;;;14.26;43.43
46583;BME280;32309;48.858;8.252;2023-05-16T18:00:49;100472.63;;;14.30;42.13
46583;BME280;32309;48.858;8.252;2023-05-16T18:03:17;100466.59;;;14.17;43.37
46583;BME280;32309;48.858;8.252;2023-05-16T18:05:20;100479.47;;;14.07;43.25
46583;BME280;32309;48.858;8.252;2023-05-16T18:07:24;100487.28;;;14.07;43.34
46583;BME280;32309;48.858;8.252;2023-05-16T18:09:25;100483.50;;;13.98;43.83
46583;BME280;32309;48.858;8.252;2023-05-16T18:11:25;100478.41;;;13.96;44.21
46583;BME280;32309;48.858;8.252;2023-05-16T18:13:26;100488.22;;;13.93;43.63
46583;BME280;32309;48.858;8.252;2023-05-16T18:15:29;100486.22;;;13.96;43.39
46583;BME280;32309;48.858;8.252;2023-05-16T18:17:31;100488.22;;;13.93;43.16
46583;BME280;32309;48.858;8.252;2023-05-16T18:19:35;100493.94;;;13.85;43.25
46583;BME280;32309;48.858;8.252;2023-05-16T18:21:35;100490.41;;;13.86;43.35
46583;BME280;32309;48.858;8.252;2023-05-16T18:23:37;100485.81;;;13.77;43.55
46583;BME280;32309;48.858;8.252;2023-05-16T18:25:37;100488.09;;;13.69;44.22
46583;BME280;32309;48.858;8.252;2023-05-16T18:27:37;100499.56;;;13.66;44.27
46583;BME280;32309;48.858;8.252;2023-05-16T18:29:38;100496.31;;;13.62;44.48
46583;BME280;32309;48.858;8.252;2023-05-16T18:31:38;100496.84;;;13.68;43.81
46583;BME280;32309;48.858;8.252;2023-05-16T18:33:43;100501.63;;;13.61;44.34
46583;BME280;32309;48.858;8.252;2023-05-16T18:35:46;100505.16;;;13.60;44.23
46583;BME280;32309;48.858;8.252;2023-05-16T18:37:46;100505.69;;;13.52;44.83
46583;BME280;32309;48.858;8.252;2023-05-16T18:39:46;100509.53;;;13.46;45.36
46583;BME280;32309;48.858;8.252;2023-05-16T18:41:50;100511.28;;;13.46;45.04
46583;BME280;32309;48.858;8.252;2023-05-16T18:43:50;100502.97;;;13.41;45.40
46583;BME280;32309;48.858;8.252;2023-05-16T18:45:50;100518.00;;;13.36;45.32
46583;BME280;32309;48.858;8.252;2023-05-16T18:47:51;100520.44;;;13.39;44.82
46583;BME280;32309;48.858;8.252;2023-05-16T18:49:51;100519.22;;;13.30;44.81
46583;BME280;32309;48.858;8.252;2023-05-16T18:51:52;100522.69;;;13.30;44.76
46583;BME280;32309;48.858;8.252;2023-05-16T18:53:54;100525.78;;;13.23;44.76
46583;BME280;32309;48.858;8.252;2023-05-16T18:55:55;100532.50;;;13.12;45.13
46583;BME280;32309;48.858;8.252;2023-05-16T18:57:55;100544.25;;;13.05;45.72
46583;BME280;32309;48.858;8.252;2023-05-16T18:59:57;100545.28;;;13.03;45.13
46583;BME280;32309;48.858;8.252;2023-05-16T19:01:58;100541.38;;;12.95;44.58
46583;BME280;32309;48.858;8.252;2023-05-16T19:03:58;100542.59;;;12.90;45.21
46583;BME280;32309;48.858;8.252;2023-05-16T19:05:58;100544.47;;;12.88;45.50
46583;BME280;32309;48.858;8.252;2023-05-16T19:07:59;100554.25;;;12.84;45.32
46583;BME280;32309;48.858;8.252;2023-05-16T19:09:59;100555.81;;;12.87;45.07
46583;BME280;32309;48.858;8.252;2023-05-16T19:12:00;100556.84;;;12.84;45.05
46583;BME280;32309;48.858;8.252;2023-05-16T19:14:00;100558.78;;;12.80;45.82
46583;BME280;32309;48.858;8.252;2023-05-16T19:16:00;100565.28;;;12.73;45.92
46583;BME280;32309;48.858;8.252;2023-05-16T19:18:02;100569.00;;;12.69;46.08
46583;BME280;32309;48.858;8.252;2023-05-16T19:20:06;100568.28;;;12.67;46.08
46583;BME280;32309;48.858;8.252;2023-05-16T19:22:08;100565.84;;;12.64;46.66
46583;BME280;32309;48.858;8.252;2023-05-16T19:24:08;100566.81;;;12.63;46.30
46583;BME280;32309;48.858;8.252;2023-05-16T19:26:08;100570.50;;;12.59;46.55
46583;BME280;32309;48.858;8.252;2023-05-16T19:28:09;100577.69;;;12.55;46.68
46583;BME280;32309;48.858;8.252;2023-05-16T19:30:09;100574.53;;;12.50;47.21
46583;BME280;32309;48.858;8.252;2023-05-16T19:32:10;100582.47;;;12.47;47.27
46583;BME280;32309;48.858;8.252;2023-05-16T19:34:11;100584.56;;;12.42;47.01
46583;BME280;32309;48.858;8.252;2023-05-16T19:36:11;100590.13;;;12.36;47.27
46583;BME280;32309;48.858;8.252;2023-05-16T19:38:11;100598.00;;;12.34;47.23
46583;BME280;32309;48.858;8.252;2023-05-16T19:40:12;100605.97;;;12.31;47.49
46583;BME280;32309;48.858;8.252;2023-05-16T19:42:12;100597.44;;;12.29;46.85
46583;BME280;32309;48.858;8.252;2023-05-16T19:44:13;100603.66;;;12.26;47.38
46583;BME280;32309;48.858;8.252;2023-05-16T19:46:13;100606.59;;;12.20;47.77
46583;BME280;32309;48.858;8.252;2023-05-16T19:48:13;100608.53;;;12.17;47.68
46583;BME280;32309;48.858;8.252;2023-05-16T19:50:13;100614.69;;;12.15;47.81
46583;BME280;32309;48.858;8.252;2023-05-16T19:52:14;100610.31;;;12.16;47.72
46583;BME280;32309;48.858;8.252;2023-05-16T19:54:14;100619.88;;;12.15;47.61
46583;BME280;32309;48.858;8.252;2023-05-16T19:56:14;100616.63;;;12.12;47.79
46583;BME280;32309;48.858;8.252;2023-05-16T19:58:15;100619.47;;;12.07;48.27
46583;BME280;32309;48.858;8.252;2023-05-16T20:00:15;100631.84;;;12.04;48.67
46583;BME280;32309;48.858;8.252;2023-05-16T20:02:16;100624.47;;;11.96;48.50
46583;BME280;32309;48.858;8.252;2023-05-16T20:04:16;100628.16;;;11.92;48.58
46583;BME280;32309;48.858;8.252;2023-05-16T20:06:16;100624.06;;;11.88;48.97
46583;BME280;32309;48.858;8.252;2023-05-16T20:08:17;100630.91;;;11.89;49.11
46583;BME280;32309;48.858;8.252;2023-05-16T20:10:17;100635.38;;;11.87;49.54
46583;BME280;32309;48.858;8.252;2023-05-16T20:12:17;100630.41;;;11.82;49.40
46583;BME280;32309;48.858;8.252;2023-05-16T20:14:18;100644.31;;;11.81;49.41
46583;BME280;32309;48.858;8.252;2023-05-16T20:16:18;100642.81;;;11.77;50.20
46583;BME280;32309;48.858;8.252;2023-05-16T20:18:19;100643.81;;;11.74;50.43